createdAt,value
2019-05-23T00:01:12.187Z,9.90
2019-05-23T00:06:35.544Z,9.80
2019-05-23T00:12:14.112Z,9.80
2019-05-23T00:17:29.779Z,9.70
2019-05-23T00:22:33.384Z,9.60
2019-05-23T00:27:37.687Z,9.60
2019-05-23T00:32:45.863Z,9.60
2019-05-23T00:37:50.679Z,9.50
2019-05-23T00:42:55.654Z,9.50
2019-05-23T00:47:59.739Z,9.50
2019-05-23T00:53:07.414Z,9.50
2019-05-23T00:58:11.423Z,9.50
2019-05-23T01:03:26.651Z,9.40
2019-05-23T01:08:31.240Z,9.40
2019-05-23T01:13:34.013Z,9.30
2019-05-23T01:18:39.362Z,9.20
2019-05-23T01:23:46.601Z,9.20
2019-05-23T01:28:49.252Z,9.10
2019-05-23T01:33:56.376Z,9.00
2019-05-23T01:39:00.943Z,8.90
2019-05-23T01:44:04.365Z,8.80
2019-05-23T01:49:07.820Z,8.70
2019-05-23T01:54:10.837Z,8.70
2019-05-23T01:59:16.744Z,8.70
2019-05-23T02:04:20.133Z,8.60
2019-05-23T02:09:23.261Z,8.50
2019-05-23T02:14:26.853Z,8.50
2019-05-23T02:19:29.549Z,8.40
2019-05-23T02:24:32.655Z,8.30
2019-05-23T02:29:35.790Z,8.20
2019-05-23T02:34:40.215Z,8.20
2019-05-23T02:40:00.713Z,8.20
2019-05-23T02:45:05.813Z,8.20
2019-05-23T02:50:16.459Z,8.10
2019-05-23T02:55:29.984Z,8.20
2019-05-23T03:00:57.914Z,8.20
2019-05-23T03:06:02.031Z,8.20
2019-05-23T03:11:32.821Z,8.20
2019-05-23T03:16:37.831Z,8.30
2019-05-23T03:21:42.872Z,8.30
2019-05-23T03:27:10.786Z,8.40
2019-05-23T03:32:37.547Z,8.50
2019-05-23T03:37:35.857Z,8.50
2019-05-23T03:42:38.990Z,8.50
2019-05-23T03:47:45.043Z,8.70
2019-05-23T03:52:49.556Z,8.80
2019-05-23T03:57:54.261Z,8.90
2019-05-23T04:02:58.867Z,9.00
2019-05-23T04:08:05.475Z,9.20
2019-05-23T04:13:08.923Z,9.30
2019-05-23T04:18:11.706Z,9.50
2019-05-23T04:23:14.398Z,9.60
2019-05-23T04:28:17.236Z,9.80
2019-05-23T04:33:23.409Z,9.90
2019-05-23T04:38:26.188Z,10.00
2019-05-23T04:43:28.917Z,10.10
2019-05-23T04:48:31.831Z,10.30
2019-05-23T04:53:35.650Z,10.30
2019-05-23T04:58:38.458Z,10.40
2019-05-23T05:03:43.396Z,10.60
2019-05-23T05:08:46.641Z,10.70
2019-05-23T05:13:49.511Z,10.80
2019-05-23T05:18:55.204Z,11.10
2019-05-23T05:23:57.226Z,11.50
2019-05-23T05:28:59.981Z,11.60
2019-05-23T05:34:02.771Z,11.70
2019-05-23T05:39:07.508Z,11.50
2019-05-23T05:44:11.782Z,11.90
2019-05-23T05:49:15.235Z,12.00
2019-05-23T05:54:18.195Z,12.10
2019-05-23T05:59:21.026Z,12.40
2019-05-23T06:04:24.186Z,12.20
2019-05-23T06:09:30.749Z,12.10
2019-05-23T06:14:33.580Z,12.40
2019-05-23T06:19:36.716Z,12.30
2019-05-23T06:24:48.232Z,12.30
2019-05-23T06:29:44.117Z,12.60
2019-05-23T06:34:48.217Z,12.60
2019-05-23T06:39:51.090Z,12.70
2019-05-23T06:44:54.791Z,12.90
2019-05-23T06:49:57.648Z,13.10
2019-05-23T06:55:00.334Z,13.00
2019-05-23T07:00:04.299Z,12.80
2019-05-23T07:05:08.280Z,12.80
2019-05-23T07:10:12.168Z,13.10
2019-05-23T07:15:15.060Z,12.90
2019-05-23T07:20:18.372Z,13.00
2019-05-23T07:25:21.876Z,13.10
2019-05-23T07:30:25.564Z,13.00
2019-05-23T07:35:28.612Z,13.10
2019-05-23T07:40:31.490Z,13.10
2019-05-23T07:45:45.747Z,13.20
2019-05-23T07:50:48.622Z,13.00
2019-05-23T07:55:53.528Z,13.20
2019-05-23T08:00:58.878Z,13.30
2019-05-23T08:06:03.358Z,13.50
2019-05-23T08:11:06.157Z,13.70
2019-05-23T08:16:09.376Z,13.80
2019-05-23T08:21:12.344Z,14.00
2019-05-23T08:31:26.526Z,15.00
2019-05-23T08:36:29.844Z,15.50
2019-05-23T08:41:34.378Z,15.40
2019-05-23T08:46:37.135Z,15.40
2019-05-23T08:51:39.766Z,15.50
2019-05-23T08:56:42.438Z,15.80
2019-05-23T09:01:45.294Z,15.30
2019-05-23T09:06:47.955Z,15.10
2019-05-23T09:11:51.905Z,15.40
2019-05-23T09:16:54.871Z,15.80
2019-05-23T09:21:58.274Z,15.60
2019-05-23T09:27:01.050Z,15.30
2019-05-23T09:32:04.219Z,15.00
2019-05-23T09:37:08.949Z,14.80
2019-05-23T09:42:12.859Z,14.60
2019-05-23T09:47:15.876Z,14.50
2019-05-23T09:52:19.268Z,14.70
2019-05-23T09:57:22.418Z,14.70
2019-05-23T10:02:27.012Z,14.80
2019-05-23T10:07:30.001Z,15.00
2019-05-23T10:12:32.846Z,15.10
2019-05-23T10:17:35.617Z,15.30
2019-05-23T10:22:38.426Z,15.50
2019-05-23T10:27:41.101Z,15.40
2019-05-23T10:32:43.886Z,15.50
2019-05-23T10:37:46.659Z,15.90
2019-05-23T10:42:49.419Z,16.00
2019-05-23T10:47:52.332Z,16.00
2019-05-23T10:52:55.162Z,16.00
2019-05-23T10:57:57.755Z,16.00
2019-05-23T11:03:00.868Z,16.20
2019-05-23T11:08:03.738Z,16.20
2019-05-23T11:13:06.532Z,16.60
2019-05-23T11:18:10.408Z,16.50
2019-05-23T11:23:16.812Z,16.60
2019-05-23T11:28:19.935Z,16.70
2019-05-23T11:33:24.429Z,17.00
2019-05-23T11:38:27.544Z,17.10
2019-05-23T11:43:31.363Z,17.50
2019-05-23T11:48:34.408Z,17.90
2019-05-23T11:53:37.428Z,18.70
2019-05-23T11:58:40.337Z,19.00
2019-05-23T12:03:44.852Z,19.40
2019-05-23T12:08:47.547Z,19.40
2019-05-23T12:13:50.638Z,20.40
2019-05-23T12:18:53.437Z,20.70
2019-05-23T12:23:56.096Z,20.20
2019-05-23T12:28:59.113Z,20.50
2019-05-23T12:34:01.875Z,20.30
2019-05-23T12:39:07.488Z,20.00
2019-05-23T12:44:10.608Z,20.00
2019-05-23T12:49:24.428Z,20.40
2019-05-23T12:54:28.793Z,21.10
2019-05-23T12:59:31.868Z,20.70
2019-05-23T13:04:35.550Z,20.80
2019-05-23T13:09:38.758Z,21.40
2019-05-23T13:14:41.501Z,21.10
2019-05-23T13:19:44.603Z,21.60
2019-05-23T13:24:52.620Z,21.60
2019-05-23T13:29:51.983Z,22.20
2019-05-23T13:34:54.834Z,23.00
2019-05-23T13:39:57.668Z,23.60
2019-05-23T13:45:00.790Z,23.90
2019-05-23T13:50:04.465Z,23.60
2019-05-23T13:55:07.781Z,24.10
2019-05-23T14:00:12.551Z,23.80
2019-05-23T14:05:18.883Z,24.80
2019-05-23T14:10:21.164Z,24.90
2019-05-23T14:15:27.520Z,23.50
2019-05-23T14:20:30.303Z,23.60
2019-05-23T14:25:33.104Z,24.20
2019-05-23T14:30:49.685Z,24.40
2019-05-23T14:35:55.665Z,24.40
2019-05-23T14:40:59.050Z,24.40
2019-05-23T14:46:07.666Z,24.10
2019-05-23T14:51:20.677Z,24.10
2019-05-23T14:56:25.381Z,23.70
2019-05-23T15:01:30.286Z,23.80
2019-05-23T15:06:33.348Z,24.50
2019-05-23T15:11:36.618Z,24.90
2019-05-23T15:16:39.581Z,24.70
2019-05-23T15:21:42.607Z,24.30
2019-05-23T15:26:45.453Z,23.80
2019-05-23T15:32:01.910Z,24.00
2019-05-23T15:36:53.185Z,24.70
2019-05-23T15:42:02.029Z,24.50
2019-05-23T15:47:05.700Z,24.30
2019-05-23T15:52:37.228Z,24.40
2019-05-23T15:57:45.245Z,25.00
2019-05-23T16:03:02.857Z,24.80
2019-05-23T16:08:05.650Z,24.30
2019-05-23T16:13:08.412Z,24.30
2019-05-23T16:18:12.071Z,24.30
2019-05-23T16:23:15.174Z,25.10
2019-05-23T16:28:17.940Z,25.70
2019-05-23T16:33:20.751Z,24.90
2019-05-23T16:38:23.558Z,24.50
2019-05-23T16:43:26.535Z,25.10
2019-05-23T16:48:29.266Z,24.60
2019-05-23T16:53:35.788Z,24.50
2019-05-23T16:59:07.983Z,24.80
2019-05-23T17:04:17.071Z,24.20
2019-05-23T17:09:39.534Z,23.70
2019-05-23T17:14:53.336Z,23.00
2019-05-23T17:20:19.728Z,22.80
2019-05-23T17:25:34.746Z,23.00
2019-05-23T17:30:46.221Z,22.50
2019-05-23T17:35:52.344Z,22.40
2019-05-23T17:40:55.819Z,21.90
2019-05-23T17:45:58.796Z,21.60
2019-05-23T17:51:01.843Z,21.60
2019-05-23T17:56:05.227Z,21.60
2019-05-23T18:01:08.307Z,21.80
2019-05-23T18:06:11.283Z,22.20
2019-05-23T18:11:15.130Z,22.10
2019-05-23T18:16:18.589Z,21.90
2019-05-23T18:21:23.746Z,21.80
2019-05-23T18:26:27.105Z,21.20
2019-05-23T18:31:48.323Z,21.00
2019-05-23T18:36:52.514Z,20.80
2019-05-23T18:42:01.452Z,20.30
2019-05-23T18:47:12.775Z,19.60
2019-05-23T18:52:16.766Z,18.80
2019-05-23T18:57:20.761Z,17.80
2019-05-23T19:02:25.087Z,17.00
2019-05-23T19:07:28.511Z,16.30
2019-05-23T19:12:32.649Z,15.70
2019-05-23T19:17:36.858Z,15.40
2019-05-23T19:22:40.097Z,15.10
2019-05-23T19:27:43.930Z,14.80
2019-05-23T19:32:47.614Z,14.60
2019-05-23T19:37:50.547Z,14.40
2019-05-23T19:42:53.789Z,14.20
2019-05-23T19:47:57.415Z,14.00
2019-05-23T19:53:00.632Z,13.80
2019-05-23T19:58:04.384Z,13.70
2019-05-23T20:03:09.180Z,13.50
2019-05-23T20:08:12.418Z,13.40
2019-05-23T20:13:18.307Z,13.30
2019-05-23T20:18:21.169Z,13.20
2019-05-23T20:23:24.178Z,13.10
2019-05-23T20:28:27.471Z,13.00
2019-05-23T20:33:30.720Z,13.00
2019-05-23T20:38:34.324Z,12.90
2019-05-23T20:43:37.505Z,12.80
2019-05-23T20:48:40.624Z,12.80
2019-05-23T20:53:43.702Z,12.70
2019-05-23T20:58:46.704Z,12.70
2019-05-23T21:03:52.405Z,12.60
2019-05-23T21:08:55.305Z,12.50
2019-05-23T21:13:58.233Z,12.50
2019-05-23T21:19:01.293Z,12.40
2019-05-23T21:24:05.322Z,12.40
2019-05-23T21:29:08.484Z,12.40
2019-05-23T21:34:11.294Z,12.40
2019-05-23T21:39:15.076Z,12.30
2019-05-23T21:44:18.464Z,12.20
2019-05-23T21:49:21.246Z,12.10
2019-05-23T21:54:27.034Z,12.10
2019-05-23T21:59:29.875Z,12.00
2019-05-23T22:04:46.865Z,12.00
2019-05-23T22:09:50.645Z,12.00
2019-05-23T22:14:53.892Z,11.90
2019-05-23T22:19:57.175Z,11.90
2019-05-23T22:30:48.117Z,11.90
2019-05-23T22:35:52.810Z,12.00
2019-05-23T22:40:55.530Z,12.00
2019-05-23T22:45:58.498Z,12.00
2019-05-23T22:51:01.728Z,12.10
2019-05-23T22:56:05.316Z,12.10
2019-05-23T23:01:08.498Z,12.10
2019-05-23T23:06:11.211Z,12.10
2019-05-23T23:11:14.279Z,12.00
2019-05-23T23:16:17.284Z,12.00
2019-05-23T23:21:20.041Z,11.90
2019-05-23T23:26:22.708Z,11.80
2019-05-23T23:31:25.694Z,11.40
2019-05-23T23:36:28.583Z,11.10
2019-05-23T23:41:31.422Z,10.90
2019-05-23T23:46:52.420Z,10.80
2019-05-23T23:52:13.258Z,10.70
2019-05-23T23:57:36.054Z,10.60
